Time;durP1;ratioP1;P1;durP2;ratioP2;P2;SDS_P1;SDS_P2;PMS_P1;PMS_P2;Temp;Humidity;BMP_temperature;BMP_pressure;BME280_temperature;BME280_humidity;BME280_pressure;Samples;Min_cycle;Max_cycle;Signal;HPM_P1;HPM_P2
2022/06/25 00:01:18;;;;;;;2.13;1.50;;;;;;;;;;7381105;19;20191;-81
2022/06/25 00:03:44;;;;;;;1.67;1.57;;;;;;;;;;7386086;19;20489;-81
2022/06/25 00:06:09;;;;;;;3.13;1.90;;;;;;;;;;7380897;19;20140;-82
2022/06/25 00:08:36;;;;;;;1.83;1.50;;;;;;;;;;7387252;19;20158;-80
2022/06/25 00:11:02;;;;;;;2.83;1.70;;;;;;;;;;7383259;19;20195;-84
2022/06/25 00:13:27;;;;;;;1.60;1.50;;;;;;;;;;7385164;19;20488;-84
2022/06/25 00:15:53;;;;;;;1.70;1.43;;;;;;;;;;7387928;19;20232;-80
2022/06/25 00:18:18;;;;;;;3.67;1.60;;;;;;;;;;7388046;19;20797;-82
2022/06/25 00:20:47;;;;;;;1.97;1.77;;;;;;;;;;7382346;19;20190;-82
2022/06/25 00:23:13;;;;;;;2.63;1.70;;;;;;;;;;7383228;19;20666;-84
2022/06/25 00:25:38;;;;;;;5.40;2.13;;;;;;;;;;7375941;19;20145;-80
2022/06/25 00:28:04;;;;;;;4.00;1.83;;;;;;;;;;7377037;19;20125;-79
2022/06/25 00:30:30;;;;;;;2.43;1.97;;;;;;;;;;7374464;19;20179;-81
2022/06/25 00:32:55;;;;;;;3.07;1.90;;;;;;;;;;7370288;19;20532;-84
2022/06/25 00:35:21;;;;;;;2.10;1.90;;;;;;;;;;7371004;19;20153;-83
2022/06/25 00:37:46;;;;;;;3.40;2.17;;;;;;;;;;7377253;19;20124;-81
2022/06/25 00:40:12;;;;;;;2.40;2.20;;;;;;;;;;7374954;19;20667;-81
2022/06/25 00:42:41;;;;;;;3.20;2.30;;;;;;;;;;7369556;19;20141;-79
2022/06/25 00:45:07;;;;;;;3.50;2.10;;;;;;;;;;7374107;19;20152;-84
2022/06/25 00:47:32;;;;;;;3.60;1.90;;;;;;;;;;7373355;19;20812;-79
2022/06/25 00:49:58;;;;;;;2.37;2.17;;;;;;;;;;7378031;19;20204;-82
2022/06/25 00:52:24;;;;;;;5.27;2.10;;;;;;;;;;7383373;19;20152;-81
2022/06/25 00:54:55;;;;;;;2.80;2.60;;;;;;;;;;7380763;19;20504;-81
2022/06/25 00:57:25;;;;;;;3.50;2.33;;;;;;;;;;7384928;19;20633;-80
2022/06/25 00:59:52;;;;;;;2.90;2.60;;;;;;;;;;7387391;19;20595;-81
2022/06/25 01:02:20;;;;;;;3.73;2.40;;;;;;;;;;7388103;19;20132;-83
2022/06/25 01:04:46;;;;;;;5.00;2.60;;;;;;;;;;7375250;19;20996;-78
2022/06/25 01:07:11;;;;;;;4.27;2.67;;;;;;;;;;7383327;19;20680;-81
2022/06/25 01:09:38;;;;;;;4.27;2.80;;;;;;;;;;7380331;19;20124;-79
2022/06/25 01:12:04;;;;;;;6.07;3.80;;;;;;;;;;7381129;19;20140;-81
2022/06/25 01:14:29;;;;;;;4.97;3.10;;;;;;;;;;7378853;19;20235;-81
2022/06/25 01:16:55;;;;;;;7.73;4.97;;;;;;;;;;7377464;19;20153;-82
2022/06/25 01:19:20;;;;;;;3.07;2.80;;;;;;;;;;7384434;19;20137;-79
2022/06/25 01:21:45;;;;;;;3.57;2.77;;;;;;;;;;7378624;19;20149;-81
2022/06/25 01:24:11;;;;;;;4.53;2.70;;;;;;;;;;7379010;19;20501;-82
2022/06/25 01:26:41;;;;;;;2.67;2.40;;;;;;;;;;7387439;19;20157;-80
2022/06/25 01:29:08;;;;;;;3.70;2.33;;;;;;;;;;7391164;19;20128;-82
2022/06/25 01:31:33;;;;;;;2.67;2.33;;;;;;;;;;7383478;19;20181;-83
2022/06/25 01:33:59;;;;;;;2.57;2.00;;;;;;;;;;7387304;19;20134;-82
2022/06/25 01:36:25;;;;;;;3.40;2.17;;;;;;;;;;7395447;19;20151;-85
2022/06/25 01:38:51;;;;;;;4.77;2.30;;;;;;;;;;7395121;19;20148;-81
2022/06/25 01:41:16;;;;;;;2.27;2.03;;;;;;;;;;7384973;19;20164;-80
2022/06/25 01:43:41;;;;;;;1.90;1.80;;;;;;;;;;7385640;19;20152;-83
2022/06/25 01:46:08;;;;;;;6.33;2.30;;;;;;;;;;7418322;19;20161;-81
2022/06/25 01:48:34;;;;;;;2.53;2.10;;;;;;;;;;7419278;19;20129;-85
2022/06/25 01:50:59;;;;;;;3.50;2.30;;;;;;;;;;7408157;19;20178;-81
2022/06/25 01:53:25;;;;;;;3.67;2.30;;;;;;;;;;7402930;19;20125;-79
2022/06/25 01:55:50;;;;;;;2.53;2.33;;;;;;;;;;7389436;19;20125;-79
2022/06/25 01:58:16;;;;;;;2.57;2.20;;;;;;;;;;7384925;19;20386;-78
2022/06/25 02:00:41;;;;;;;3.43;2.37;;;;;;;;;;7384168;19;20168;-79
2022/06/25 02:03:07;;;;;;;2.77;2.30;;;;;;;;;;7384658;19;20510;-79
2022/06/25 02:08:17;;;;;;;3.97;2.37;;;;;;;;;;7383847;19;20132;-83
2022/06/25 02:10:44;;;;;;;2.97;2.10;;;;;;;;;;7387000;19;20176;-81
2022/06/25 02:13:10;;;;;;;2.87;2.67;;;;;;;;;;7384394;19;20152;-79
2022/06/25 02:15:35;;;;;;;3.43;2.20;;;;;;;;;;7382649;19;20125;-81
2022/06/25 02:18:01;;;;;;;5.13;2.67;;;;;;;;;;7381055;19;20156;-81
2022/06/25 02:20:27;;;;;;;3.80;3.50;;;;;;;;;;7378856;19;20176;-80
2022/06/25 02:22:52;;;;;;;3.40;3.00;;;;;;;;;;7385431;19;20136;-79
2022/06/25 02:25:18;;;;;;;4.17;3.00;;;;;;;;;;7384899;19;20399;-82
2022/06/25 02:27:43;;;;;;;5.07;3.63;;;;;;;;;;7382563;19;20192;-79
2022/06/25 02:30:09;;;;;;;3.80;2.80;;;;;;;;;;7387181;19;20600;-81
2022/06/25 02:32:34;;;;;;;3.80;2.90;;;;;;;;;;7382294;19;20155;-78
2022/06/25 02:35:00;;;;;;;2.97;2.77;;;;;;;;;;7379920;19;20128;-81
2022/06/25 02:37:25;;;;;;;5.50;3.20;;;;;;;;;;7384217;19;20493;-82
2022/06/25 02:39:50;;;;;;;3.30;3.00;;;;;;;;;;7383204;19;20487;-79
2022/06/25 02:42:16;;;;;;;6.60;3.13;;;;;;;;;;7383880;19;20607;-79
2022/06/25 02:44:41;;;;;;;4.87;3.03;;;;;;;;;;7375670;19;20145;-78
2022/06/25 02:47:06;;;;;;;7.33;2.80;;;;;;;;;;7379402;19;20132;-83
2022/06/25 02:49:31;;;;;;;5.57;3.13;;;;;;;;;;7381963;19;20128;-81
2022/06/25 02:51:57;;;;;;;4.03;3.03;;;;;;;;;;7382240;19;20140;-79
2022/06/25 02:54:22;;;;;;;4.20;2.90;;;;;;;;;;7384918;19;20128;-81
2022/06/25 02:59:32;;;;;;;2.77;2.53;;;;;;;;;;7383512;19;20524;-80
2022/06/25 03:01:57;;;;;;;3.73;3.07;;;;;;;;;;7380646;19;20125;-81
2022/06/25 03:04:24;;;;;;;4.70;2.70;;;;;;;;;;7381234;19;20140;-78
2022/06/25 03:06:50;;;;;;;5.53;3.40;;;;;;;;;;7388911;19;20152;-80
2022/06/25 03:09:15;;;;;;;3.83;3.43;;;;;;;;;;7385161;19;20203;-84
2022/06/25 03:11:40;;;;;;;3.77;3.10;;;;;;;;;;7379019;19;20172;-81
2022/06/25 03:14:06;;;;;;;4.00;3.27;;;;;;;;;;7381882;19;20678;-79
2022/06/25 03:16:32;;;;;;;3.90;3.37;;;;;;;;;;7387199;19;20149;-80
2022/06/25 03:18:57;;;;;;;4.20;3.20;;;;;;;;;;7380886;19;20165;-79
2022/06/25 03:21:23;;;;;;;4.60;3.20;;;;;;;;;;7377275;19;20172;-79
2022/06/25 03:23:48;;;;;;;4.30;3.37;;;;;;;;;;7377194;19;20164;-81
2022/06/25 03:26:13;;;;;;;4.27;3.27;;;;;;;;;;7384929;19;20153;-79
2022/06/25 03:28:39;;;;;;;5.53;3.50;;;;;;;;;;7385796;19;20163;-80
2022/06/25 03:31:04;;;;;;;4.07;3.67;;;;;;;;;;7380602;19;20152;-83
2022/06/25 03:33:29;;;;;;;4.10;3.50;;;;;;;;;;7388525;19;20196;-79
2022/06/25 03:35:54;;;;;;;6.40;3.97;;;;;;;;;;7379390;19;20222;-79
2022/06/25 03:38:20;;;;;;;4.30;3.70;;;;;;;;;;7377693;19;20602;-80
2022/06/25 03:40:45;;;;;;;4.87;4.13;;;;;;;;;;7374592;19;20673;-80
2022/06/25 03:43:10;;;;;;;5.10;3.87;;;;;;;;;;7378606;19;20141;-83
2022/06/25 03:45:38;;;;;;;3.73;3.33;;;;;;;;;;7376754;19;20155;-80
2022/06/25 03:48:03;;;;;;;4.60;4.20;;;;;;;;;;7378093;19;20152;-82
2022/06/25 03:50:28;;;;;;;4.33;4.00;;;;;;;;;;7368766;19;21679;-79
2022/06/25 03:52:54;;;;;;;4.80;4.30;;;;;;;;;;7377387;19;20152;-81
2022/06/25 03:55:19;;;;;;;5.67;3.90;;;;;;;;;;7376219;19;20160;-81
2022/06/25 03:57:45;;;;;;;4.50;4.10;;;;;;;;;;7377463;19;20113;-79
2022/06/25 04:00:10;;;;;;;5.50;4.37;;;;;;;;;;7372271;19;20539;-79
2022/06/25 04:02:36;;;;;;;5.20;4.80;;;;;;;;;;7376172;19;20162;-79
2022/06/25 04:05:02;;;;;;;4.63;4.23;;;;;;;;;;7364151;19;20137;-83
2022/06/25 04:07:27;;;;;;;5.03;4.63;;;;;;;;;;7373684;19;20137;-79
2022/06/25 04:09:53;;;;;;;5.40;5.00;;;;;;;;;;7385155;19;20184;-79
2022/06/25 04:12:18;;;;;;;4.80;4.40;;;;;;;;;;7374353;19;20141;-80
2022/06/25 04:14:43;;;;;;;5.07;4.67;;;;;;;;;;7375438;19;20152;-79
2022/06/25 04:17:09;;;;;;;5.57;4.70;;;;;;;;;;7376293;19;20607;-79
2022/06/25 04:19:40;;;;;;;5.70;5.13;;;;;;;;;;7374575;19;20549;-80
2022/06/25 04:22:07;;;;;;;4.67;4.27;;;;;;;;;;7381814;19;20152;-79
2022/06/25 04:24:32;;;;;;;4.87;4.47;;;;;;;;;;7378804;19;20157;-80
2022/06/25 04:26:58;;;;;;;4.80;4.37;;;;;;;;;;7385070;19;20144;-78
2022/06/25 04:29:23;;;;;;;5.30;4.80;;;;;;;;;;7379920;19;20149;-79
2022/06/25 04:31:48;;;;;;;5.00;4.60;;;;;;;;;;7375947;19;20145;-82
2022/06/25 04:34:15;;;;;;;4.77;4.33;;;;;;;;;;7383798;19;20179;-78
2022/06/25 04:36:40;;;;;;;5.03;4.53;;;;;;;;;;7381636;19;20181;-78
2022/06/25 04:39:06;;;;;;;5.23;4.83;;;;;;;;;;7382781;19;20189;-79
2022/06/25 04:41:31;;;;;;;5.90;5.23;;;;;;;;;;7377737;19;20149;-79
2022/06/25 04:43:57;;;;;;;6.43;5.00;;;;;;;;;;7375710;19;20125;-79
2022/06/25 04:46:22;;;;;;;5.27;4.83;;;;;;;;;;7380102;19;20156;-80
2022/06/25 04:48:48;;;;;;;5.93;5.20;;;;;;;;;;7383599;19;20148;-78
2022/06/25 04:51:13;;;;;;;5.57;5.07;;;;;;;;;;7380520;19;20164;-78
2022/06/25 04:53:55;;;;;;;6.00;5.40;;;;;;;;;;7380786;19;20164;-78
2022/06/25 04:56:27;;;;;;;6.47;5.87;;;;;;;;;;7389438;19;20658;-80
2022/06/25 04:58:52;;;;;;;6.10;5.60;;;;;;;;;;7406317;19;20133;-79
2022/06/25 05:01:18;;;;;;;6.60;5.27;;;;;;;;;;7406507;19;20136;-78
2022/06/25 05:03:43;;;;;;;5.77;5.27;;;;;;;;;;7385695;19;20185;-78
2022/06/25 05:06:09;;;;;;;6.60;5.80;;;;;;;;;;7385768;19;20137;-80
2022/06/25 05:08:35;;;;;;;6.83;5.87;;;;;;;;;;7390751;19;20228;-80
2022/06/25 05:11:00;;;;;;;6.73;5.47;;;;;;;;;;7386945;19;20149;-79
2022/06/25 05:13:26;;;;;;;5.80;5.30;;;;;;;;;;7391328;19;20133;-78
2022/06/25 05:15:52;;;;;;;5.83;5.23;;;;;;;;;;7390064;19;20440;-78
2022/06/25 05:18:17;;;;;;;8.40;6.10;;;;;;;;;;7388375;19;20121;-79
2022/06/25 05:20:43;;;;;;;7.03;5.67;;;;;;;;;;7384563;19;20145;-78
2022/06/25 05:23:09;;;;;;;5.87;5.33;;;;;;;;;;7387887;19;20157;-80
2022/06/25 05:25:35;;;;;;;6.17;5.57;;;;;;;;;;7379990;19;20157;-79
2022/06/25 05:28:01;;;;;;;7.87;5.23;;;;;;;;;;7389802;19;20177;-79
2022/06/25 05:30:26;;;;;;;6.97;5.30;;;;;;;;;;7384617;19;20145;-79
2022/06/25 05:32:51;;;;;;;5.97;5.37;;;;;;;;;;7389767;19;20192;-79
2022/06/25 05:35:17;;;;;;;6.77;4.90;;;;;;;;;;7386264;19;20133;-79
2022/06/25 05:37:42;;;;;;;6.37;4.93;;;;;;;;;;7387793;19;20213;-78
2022/06/25 05:40:09;;;;;;;5.67;4.73;;;;;;;;;;7387835;19;20165;-80
2022/06/25 05:42:35;;;;;;;4.70;4.30;;;;;;;;;;7385840;19;20156;-79
2022/06/25 05:45:00;;;;;;;5.87;5.27;;;;;;;;;;7387123;19;20176;-82
2022/06/25 05:47:25;;;;;;;5.27;4.50;;;;;;;;;;7382216;19;20181;-81
2022/06/25 05:49:50;;;;;;;6.50;4.77;;;;;;;;;;7385795;19;20517;-81
2022/06/25 05:52:16;;;;;;;5.80;5.20;;;;;;;;;;7393461;19;20136;-81
2022/06/25 05:54:41;;;;;;;6.03;4.43;;;;;;;;;;7389825;19;20145;-80
2022/06/25 05:57:07;;;;;;;4.83;4.30;;;;;;;;;;7390117;19;20133;-80
2022/06/25 05:59:33;;;;;;;6.13;4.50;;;;;;;;;;7389373;19;20125;-82
2022/06/25 06:01:58;;;;;;;9.23;4.17;;;;;;;;;;7383612;19;20145;-79
2022/06/25 06:04:23;;;;;;;5.20;4.67;;;;;;;;;;7386974;19;20117;-81
2022/06/25 06:06:49;;;;;;;5.83;4.27;;;;;;;;;;7389934;19;20204;-80
2022/06/25 06:09:14;;;;;;;7.37;4.80;;;;;;;;;;7389830;19;20504;-81
2022/06/25 06:11:39;;;;;;;5.83;5.10;;;;;;;;;;7383499;19;20180;-82
2022/06/25 06:14:05;;;;;;;7.27;5.70;;;;;;;;;;7386227;19;20212;-82
2022/06/25 06:16:30;;;;;;;7.30;5.33;;;;;;;;;;7384812;19;20157;-80
2022/06/25 06:18:55;;;;;;;9.07;6.43;;;;;;;;;;7386937;19;20141;-80
2022/06/25 06:21:21;;;;;;;7.93;6.13;;;;;;;;;;7386989;19;20161;-80
2022/06/25 06:23:46;;;;;;;9.55;6.75;;;;;;;;;;7389290;19;20152;-81
2022/06/25 06:26:11;;;;;;;7.30;5.37;;;;;;;;;;7389299;19;20509;-80
2022/06/25 06:28:36;;;;;;;6.35;4.50;;;;;;;;;;7389993;19;20613;-81
2022/06/25 06:31:02;;;;;;;5.03;4.32;;;;;;;;;;7381711;19;20152;-80
2022/06/25 06:33:27;;;;;;;4.60;4.10;;;;;;;;;;7378870;19;20163;-82
2022/06/25 06:35:52;;;;;;;4.57;3.58;;;;;;;;;;7389088;19;20553;-82
2022/06/25 06:38:18;;;;;;;4.68;4.20;;;;;;;;;;7390717;19;20129;-79
2022/06/25 06:40:43;;;;;;;3.67;3.28;;;;;;;;;;7387557;19;20527;-82
2022/06/25 06:43:09;;;;;;;8.38;4.38;;;;;;;;;;7383597;19;20156;-81
2022/06/25 06:45:34;;;;;;;3.85;3.45;;;;;;;;;;7385490;19;20128;-80
2022/06/25 06:47:59;;;;;;;3.50;3.20;;;;;;;;;;7388267;19;20123;-80
2022/06/25 06:50:25;;;;;;;5.32;4.68;;;;;;;;;;7384629;19;20176;-80
2022/06/25 06:52:50;;;;;;;5.78;3.95;;;;;;;;;;7386068;19;20682;-80
2022/06/25 06:55:15;;;;;;;6.93;4.45;;;;;;;;;;7423711;19;20113;-80
2022/06/25 06:57:41;;;;;;;6.05;4.25;;;;;;;;;;7417942;19;20133;-80
2022/06/25 07:00:06;;;;;;;6.10;4.18;;;;;;;;;;7422156;19;20137;-81
2022/06/25 07:02:32;;;;;;;7.97;4.18;;;;;;;;;;7422473;19;20511;-81
2022/06/25 07:04:58;;;;;;;5.10;3.90;;;;;;;;;;7393142;19;20622;-80
2022/06/25 07:07:23;;;;;;;6.30;4.15;;;;;;;;;;7382084;19;20160;-79
2022/06/25 07:09:49;;;;;;;3.50;3.20;;;;;;;;;;7384126;19;20172;-79
2022/06/25 07:12:14;;;;;;;3.65;3.35;;;;;;;;;;7382505;19;20596;-79
2022/06/25 07:14:39;;;;;;;5.65;2.55;;;;;;;;;;7389365;19;20133;-79
2022/06/25 07:17:05;;;;;;;4.53;2.60;;;;;;;;;;7387615;19;20129;-80
2022/06/25 07:19:30;;;;;;;4.85;2.50;;;;;;;;;;7385617;19;20133;-80
2022/06/25 07:21:57;;;;;;;2.80;2.50;;;;;;;;;;7381141;19;20486;-79
2022/06/25 07:24:22;;;;;;;5.97;2.53;;;;;;;;;;7388989;19;20621;-80
2022/06/25 07:26:48;;;;;;;2.60;1.80;;;;;;;;;;7389413;19;20129;-79
2022/06/25 07:29:13;;;;;;;2.47;1.92;;;;;;;;;;7387263;19;20117;-79
2022/06/25 07:31:39;;;;;;;3.55;1.90;;;;;;;;;;7382227;19;20153;-79
2022/06/25 07:34:04;;;;;;;2.63;2.42;;;;;;;;;;7383422;19;21475;-79
2022/06/25 07:36:30;;;;;;;2.22;1.88;;;;;;;;;;7385239;19;20245;-79
2022/06/25 07:38:55;;;;;;;3.13;2.72;;;;;;;;;;7391620;19;20566;-80
2022/06/25 07:41:20;;;;;;;2.08;1.92;;;;;;;;;;7399006;19;20149;-80
2022/06/25 07:43:46;;;;;;;3.13;2.20;;;;;;;;;;7394730;19;20141;-77
2022/06/25 07:46:11;;;;;;;14.38;11.43;;;;;;;;;;7371414;19;20517;-79
2022/06/25 07:48:37;;;;;;;6.18;5.32;;;;;;;;;;7383225;19;20599;-79
2022/06/25 07:53:46;;;;;;;5.18;3.78;;;;;;;;;;7379902;19;20605;-79
2022/06/25 07:56:12;;;;;;;4.18;1.90;;;;;;;;;;7378168;19;20156;-80
2022/06/25 07:58:37;;;;;;;2.70;1.90;;;;;;;;;;7379756;19;20151;-80
2022/06/25 08:01:02;;;;;;;3.00;1.50;;;;;;;;;;7393564;19;20156;-79
2022/06/25 08:03:28;;;;;;;2.40;2.15;;;;;;;;;;7393700;19;20133;-78
2022/06/25 08:05:55;;;;;;;2.10;1.80;;;;;;;;;;7393364;19;20480;-79
2022/06/25 08:08:20;;;;;;;1.55;1.40;;;;;;;;;;7387470;19;20152;-78
2022/06/25 08:10:46;;;;;;;1.70;1.52;;;;;;;;;;7389262;19;20153;-78
2022/06/25 08:13:11;;;;;;;2.10;1.90;;;;;;;;;;7391616;19;20133;-79
2022/06/25 08:15:36;;;;;;;2.08;1.70;;;;;;;;;;7390760;19;20166;-78
2022/06/25 08:18:02;;;;;;;2.20;2.00;;;;;;;;;;7392615;19;20141;-79
2022/06/25 08:20:28;;;;;;;3.08;1.70;;;;;;;;;;7389201;19;20674;-78
2022/06/25 08:22:53;;;;;;;3.83;2.67;;;;;;;;;;7392319;19;20433;-78
2022/06/25 08:25:18;;;;;;;7.60;2.60;;;;;;;;;;7393350;19;20117;-78
2022/06/25 08:27:53;;;;;;;5.90;3.25;;;;;;;;;;7392082;19;20151;-79
2022/06/25 08:30:23;;;;;;;3.85;2.42;;;;;;;;;;7389595;19;20172;-78
2022/06/25 08:32:48;;;;;;;3.22;2.45;;;;;;;;;;7391352;19;20180;-79
2022/06/25 08:35:14;;;;;;;4.07;2.70;;;;;;;;;;7388787;19;20136;-78
2022/06/25 08:37:43;;;;;;;3.20;2.25;;;;;;;;;;7388952;19;20144;-78
2022/06/25 08:40:09;;;;;;;2.63;2.42;;;;;;;;;;7390307;19;20232;-80
2022/06/25 08:42:34;;;;;;;2.83;2.20;;;;;;;;;;7391295;19;20148;-78
2022/06/25 08:45:00;;;;;;;4.60;2.50;;;;;;;;;;7386065;19;20621;-78
2022/06/25 08:47:26;;;;;;;4.68;2.55;;;;;;;;;;7392138;19;20125;-78
2022/06/25 08:49:51;;;;;;;3.38;3.08;;;;;;;;;;7391630;19;20806;-78
2022/06/25 08:52:18;;;;;;;4.82;2.50;;;;;;;;;;7398083;19;20572;-80
2022/06/25 08:54:44;;;;;;;4.95;2.50;;;;;;;;;;7395508;19;20244;-78
2022/06/25 08:57:09;;;;;;;2.30;2.10;;;;;;;;;;7394121;19;20140;-79
2022/06/25 08:59:35;;;;;;;3.10;2.03;;;;;;;;;;7392367;19;20159;-78
2022/06/25 09:02:00;;;;;;;3.65;2.40;;;;;;;;;;7391585;19;20646;-79
2022/06/25 09:04:26;;;;;;;3.33;3.03;;;;;;;;;;7388304;19;20129;-80
2022/06/25 09:07:08;;;;;;;4.43;2.35;;;;;;;;;;7390180;19;20148;-79
2022/06/25 09:09:33;;;;;;;2.55;2.35;;;;;;;;;;7389698;19;20482;-78
2022/06/25 09:12:05;;;;;;;3.75;2.17;;;;;;;;;;7391598;19;20469;-78
2022/06/25 09:14:31;;;;;;;2.83;2.63;;;;;;;;;;7391287;19;20152;-79
2022/06/25 09:16:58;;;;;;;5.10;3.60;;;;;;;;;;7384058;19;20146;-78
2022/06/25 09:19:37;;;;;;;3.28;2.92;;;;;;;;;;7400616;19;20161;-79
2022/06/25 09:22:08;;;;;;;2.80;2.60;;;;;;;;;;7412412;19;20133;-79
2022/06/25 09:24:40;;;;;;;2.50;2.30;;;;;;;;;;7413731;19;20155;-78
2022/06/25 09:27:06;;;;;;;3.38;2.33;;;;;;;;;;7387525;19;20200;-79
2022/06/25 09:29:39;;;;;;;3.53;2.33;;;;;;;;;;7389462;19;20145;-80
2022/06/25 09:32:05;;;;;;;3.88;3.58;;;;;;;;;;7389460;19;20157;-79
2022/06/25 09:34:34;;;;;;;3.67;3.30;;;;;;;;;;7387807;19;20168;-79
2022/06/25 09:37:19;;;;;;;4.53;3.20;;;;;;;;;;7387604;19;20137;-79
2022/06/25 09:39:46;;;;;;;3.45;2.50;;;;;;;;;;7391099;19;20133;-79
2022/06/25 09:42:22;;;;;;;3.70;2.42;;;;;;;;;;7386602;19;20183;-79
2022/06/25 09:44:48;;;;;;;2.97;2.65;;;;;;;;;;7385761;19;20810;-79
2022/06/25 09:47:14;;;;;;;3.20;2.53;;;;;;;;;;7384353;19;20152;-79
2022/06/25 09:49:39;;;;;;;2.30;2.10;;;;;;;;;;7390519;19;20173;-78
2022/06/25 09:52:05;;;;;;;3.22;2.90;;;;;;;;;;7389346;19;20169;-79
2022/06/25 09:54:31;;;;;;;2.63;2.42;;;;;;;;;;7386319;19;20132;-79
2022/06/25 09:56:57;;;;;;;3.28;2.20;;;;;;;;;;7386887;19;20145;-78
2022/06/25 09:59:28;;;;;;;2.78;1.95;;;;;;;;;;7386217;19;20133;-79
2022/06/25 10:01:54;;;;;;;1.73;1.63;;;;;;;;;;7390806;19;20488;-78
2022/06/25 10:04:20;;;;;;;2.05;1.92;;;;;;;;;;7388012;19;20144;-79
2022/06/25 10:06:46;;;;;;;3.97;1.90;;;;;;;;;;7387692;19;20133;-79
2022/06/25 10:09:13;;;;;;;1.80;1.70;;;;;;;;;;7390166;19;20141;-78
2022/06/25 10:11:39;;;;;;;1.70;1.60;;;;;;;;;;7386842;19;20595;-79
2022/06/25 10:14:04;;;;;;;1.60;1.50;;;;;;;;;;7389447;19;20162;-79
2022/06/25 10:16:30;;;;;;;2.85;1.42;;;;;;;;;;7389886;19;20134;-78
2022/06/25 10:18:55;;;;;;;2.25;1.40;;;;;;;;;;7387028;19;20148;-78
2022/06/25 10:21:22;;;;;;;2.55;1.80;;;;;;;;;;7381197;19;20169;-79
2022/06/25 10:23:50;;;;;;;2.38;1.65;;;;;;;;;;7384480;19;20176;-79
2022/06/25 10:26:16;;;;;;;3.22;1.80;;;;;;;;;;7389193;19;20176;-79
2022/06/25 10:28:42;;;;;;;2.75;1.40;;;;;;;;;;7387724;19;20204;-79
2022/06/25 10:31:12;;;;;;;2.33;1.33;;;;;;;;;;7381143;19;20650;-78
2022/06/25 10:34:04;;;;;;;3.25;2.95;;;;;;;;;;7389198;19;20181;-78
2022/06/25 10:36:39;;;;;;;1.60;1.50;;;;;;;;;;7387177;19;20495;-79
2022/06/25 10:39:26;;;;;;;2.35;1.42;;;;;;;;;;7388040;19;20232;-78
2022/06/25 10:44:54;;;;;;;2.22;1.30;;;;;;;;;;7390183;19;20120;-79
2022/06/25 10:47:36;;;;;;;1.10;1.00;;;;;;;;;;7390835;19;20144;-79
2022/06/25 10:50:20;;;;;;;2.13;1.20;;;;;;;;;;7388374;19;20197;-78
2022/06/25 10:53:05;;;;;;;2.35;1.10;;;;;;;;;;7383421;19;20511;-79
2022/06/25 10:55:50;;;;;;;1.13;1.00;;;;;;;;;;7386236;19;20621;-79
2022/06/25 10:58:25;;;;;;;1.40;1.30;;;;;;;;;;7391027;19;20159;-81
2022/06/25 11:01:01;;;;;;;2.40;2.17;;;;;;;;;;7388168;19;20227;-81
2022/06/25 11:03:32;;;;;;;1.45;1.35;;;;;;;;;;7389376;19;20161;-78
2022/06/25 11:06:00;;;;;;;1.55;1.25;;;;;;;;;;7389192;19;20128;-78
2022/06/25 11:08:35;;;;;;;0.98;0.98;;;;;;;;;;7384748;19;20141;-81
2022/06/25 11:11:01;;;;;;;1.25;1.20;;;;;;;;;;7387408;19;20220;-81
2022/06/25 11:13:27;;;;;;;1.67;1.10;;;;;;;;;;7389156;19;20152;-82
2022/06/25 11:15:52;;;;;;;1.33;1.23;;;;;;;;;;7391006;19;20170;-79
2022/06/25 11:18:18;;;;;;;2.67;1.20;;;;;;;;;;7388557;19;20132;-79
2022/06/25 11:20:43;;;;;;;1.20;1.13;;;;;;;;;;7387644;19;20164;-79
2022/06/25 11:23:13;;;;;;;1.38;1.25;;;;;;;;;;7390192;19;20136;-79
2022/06/25 11:28:48;;;;;;;3.00;1.20;;;;;;;;;;7386866;19;20139;-79
2022/06/25 11:31:23;;;;;;;2.05;1.30;;;;;;;;;;7391431;19;20168;-79
2022/06/25 11:33:51;;;;;;;1.40;1.30;;;;;;;;;;7392807;19;20598;-79
2022/06/25 11:36:18;;;;;;;1.42;1.33;;;;;;;;;;7393109;19;20163;-79
2022/06/25 11:38:50;;;;;;;2.58;1.33;;;;;;;;;;7388465;19;20148;-79
2022/06/25 11:41:22;;;;;;;1.48;1.38;;;;;;;;;;7386055;19;20180;-79
2022/06/25 11:43:48;;;;;;;1.35;1.25;;;;;;;;;;7387249;19;20148;-79
2022/06/25 11:46:18;;;;;;;2.70;2.42;;;;;;;;;;7388851;19;20148;-79
2022/06/25 11:48:46;;;;;;;1.50;1.40;;;;;;;;;;7389205;19;20148;-79
2022/06/25 11:51:13;;;;;;;1.40;1.30;;;;;;;;;;7386510;19;20187;-79
2022/06/25 11:53:39;;;;;;;1.30;1.20;;;;;;;;;;7388527;19;20162;-80
2022/06/25 11:56:05;;;;;;;1.40;1.30;;;;;;;;;;7390374;19;20185;-80
2022/06/25 11:58:32;;;;;;;1.50;1.40;;;;;;;;;;7386558;19;20125;-80
2022/06/25 12:00:59;;;;;;;1.30;1.20;;;;;;;;;;7384813;19;20168;-80
2022/06/25 12:03:26;;;;;;;1.50;1.40;;;;;;;;;;7388590;19;20144;-79
2022/06/25 12:05:53;;;;;;;2.33;1.50;;;;;;;;;;7385645;19;20137;-80
2022/06/25 12:08:20;;;;;;;1.70;1.60;;;;;;;;;;7392434;19;20525;-79
2022/06/25 12:10:47;;;;;;;5.45;2.30;;;;;;;;;;7410102;19;20149;-80
2022/06/25 12:13:14;;;;;;;4.90;4.00;;;;;;;;;;7406324;19;20156;-79
2022/06/25 12:15:40;;;;;;;1.80;1.50;;;;;;;;;;7409101;19;20149;-80
2022/06/25 12:18:06;;;;;;;1.35;1.30;;;;;;;;;;7403822;19;20129;-80
2022/06/25 12:20:33;;;;;;;1.70;1.35;;;;;;;;;;7384275;19;20184;-82
2022/06/25 12:22:59;;;;;;;1.70;1.60;;;;;;;;;;7401682;19;20145;-82
2022/06/25 12:25:30;;;;;;;2.60;2.40;;;;;;;;;;7410265;19;20332;-80
2022/06/25 12:27:57;;;;;;;2.10;1.90;;;;;;;;;;7408355;19;20155;-79
2022/06/25 12:30:27;;;;;;;1.70;1.60;;;;;;;;;;7409513;19;20172;-80
2022/06/25 12:32:55;;;;;;;1.50;1.40;;;;;;;;;;7415711;19;20145;-82
2022/06/25 12:35:24;;;;;;;1.55;1.45;;;;;;;;;;7418488;19;20157;-82
2022/06/25 12:38:00;;;;;;;1.50;1.40;;;;;;;;;;7418943;19;20144;-82
2022/06/25 12:40:26;;;;;;;1.30;1.20;;;;;;;;;;7401366;19;20184;-82
2022/06/25 12:42:59;;;;;;;1.40;1.30;;;;;;;;;;7388980;19;20500;-82
2022/06/25 12:45:25;;;;;;;1.50;1.40;;;;;;;;;;7388586;19;20152;-82
2022/06/25 12:47:50;;;;;;;1.55;1.40;;;;;;;;;;7397480;19;20156;-80
2022/06/25 12:50:46;;;;;;;1.70;1.40;;;;;;;;;;7396933;19;20705;-80
2022/06/25 12:53:13;;;;;;;1.52;1.40;;;;;;;;;;7394489;19;20843;-80
2022/06/25 12:55:40;;;;;;;1.50;1.40;;;;;;;;;;7393120;19;20152;-80
2022/06/25 12:58:08;;;;;;;1.63;1.52;;;;;;;;;;7412104;19;20120;-81
2022/06/25 13:00:35;;;;;;;1.42;1.33;;;;;;;;;;7424640;19;20199;-81
2022/06/25 13:03:01;;;;;;;1.60;1.50;;;;;;;;;;7426583;19;20132;-80
2022/06/25 13:05:27;;;;;;;1.50;1.40;;;;;;;;;;7425556;19;20144;-81
2022/06/25 13:07:52;;;;;;;2.40;1.50;;;;;;;;;;7422375;19;20132;-80
2022/06/25 13:10:18;;;;;;;1.65;1.55;;;;;;;;;;7393758;19;20191;-80
2022/06/25 13:12:43;;;;;;;1.42;1.33;;;;;;;;;;7400548;19;20128;-80
2022/06/25 13:15:09;;;;;;;2.08;1.50;;;;;;;;;;7397272;19;20592;-80
2022/06/25 13:17:35;;;;;;;2.33;1.50;;;;;;;;;;7394894;19;20161;-80
2022/06/25 13:20:01;;;;;;;1.65;1.55;;;;;;;;;;7395776;19;20148;-80
2022/06/25 13:22:26;;;;;;;1.95;1.63;;;;;;;;;;7396235;19;20148;-80
2022/06/25 13:24:51;;;;;;;2.40;1.65;;;;;;;;;;7392587;19;20179;-80
2022/06/25 13:27:17;;;;;;;1.50;1.40;;;;;;;;;;7394921;19;20467;-79
2022/06/25 13:29:44;;;;;;;1.60;1.50;;;;;;;;;;7394886;19;20136;-80
2022/06/25 13:32:10;;;;;;;1.58;1.42;;;;;;;;;;7404737;19;20136;-79
2022/06/25 13:34:35;;;;;;;1.48;1.42;;;;;;;;;;7413071;19;20159;-79
2022/06/25 13:37:00;;;;;;;2.67;1.50;;;;;;;;;;7413861;19;20179;-80
2022/06/25 13:39:26;;;;;;;1.50;1.40;;;;;;;;;;7393631;19;20152;-80
2022/06/25 13:41:51;;;;;;;1.70;1.60;;;;;;;;;;7394770;19;20151;-80
2022/06/25 13:44:18;;;;;;;1.55;1.45;;;;;;;;;;7394901;19;20125;-80
2022/06/25 13:46:44;;;;;;;2.92;1.50;;;;;;;;;;7391600;19;20152;-80
2022/06/25 13:49:09;;;;;;;2.63;2.15;;;;;;;;;;7401360;19;20621;-80
2022/06/25 13:51:35;;;;;;;1.88;1.77;;;;;;;;;;7410470;19;20136;-80
2022/06/25 13:54:00;;;;;;;3.05;1.60;;;;;;;;;;7406065;19;20171;-82
2022/06/25 13:56:26;;;;;;;1.40;1.30;;;;;;;;;;7396141;19;20117;-80
2022/06/25 13:58:51;;;;;;;1.50;1.40;;;;;;;;;;7400522;19;20132;-80
2022/06/25 14:01:17;;;;;;;1.52;1.35;;;;;;;;;;7395512;19;20178;-80
2022/06/25 14:03:42;;;;;;;1.60;1.50;;;;;;;;;;7398164;19;20152;-81
2022/06/25 14:06:07;;;;;;;1.98;1.75;;;;;;;;;;7397583;19;20144;-80
2022/06/25 14:08:33;;;;;;;1.33;1.27;;;;;;;;;;7400779;19;20905;-80
2022/06/25 14:10:58;;;;;;;1.50;1.40;;;;;;;;;;7396787;19;20140;-80
2022/06/25 14:13:24;;;;;;;1.90;1.80;;;;;;;;;;7395712;19;20152;-80
2022/06/25 14:15:50;;;;;;;2.33;1.42;;;;;;;;;;7398926;19;20152;-80
2022/06/25 14:18:15;;;;;;;1.58;1.48;;;;;;;;;;7400089;19;20155;-80
2022/06/25 14:20:40;;;;;;;1.40;1.30;;;;;;;;;;7394930;19;20164;-80
2022/06/25 14:23:06;;;;;;;1.48;1.38;;;;;;;;;;7399528;19;20219;-80
2022/06/25 14:25:31;;;;;;;3.83;1.60;;;;;;;;;;7395876;19;20172;-80
2022/06/25 14:27:59;;;;;;;2.00;1.40;;;;;;;;;;7401127;19;20136;-81
2022/06/25 14:30:26;;;;;;;1.60;1.45;;;;;;;;;;7400533;19;20172;-80
2022/06/25 14:32:51;;;;;;;1.70;1.60;;;;;;;;;;7399953;19;20216;-80
2022/06/25 14:35:17;;;;;;;1.60;1.50;;;;;;;;;;7396611;19;20144;-81
2022/06/25 14:43:10;;;;;;;2.13;1.50;;;;;;;;;;7394566;19;20254;-81
2022/06/25 14:45:36;;;;;;;1.20;1.20;;;;;;;;;;7390474;19;20156;-81
2022/06/25 14:48:02;;;;;;;2.03;1.40;;;;;;;;;;7393602;19;20668;-80
2022/06/25 14:50:27;;;;;;;2.03;1.88;;;;;;;;;;7391039;19;20763;-81
2022/06/25 14:52:53;;;;;;;1.60;1.50;;;;;;;;;;7392220;19;20140;-81
2022/06/25 14:55:18;;;;;;;3.55;1.75;;;;;;;;;;7394900;19;20160;-83
2022/06/25 14:57:44;;;;;;;1.70;1.30;;;;;;;;;;7390875;19;20149;-81
2022/06/25 15:00:09;;;;;;;1.30;1.25;;;;;;;;;;7394691;19;20160;-81